Time;durP1;ratioP1;P1;durP2;ratioP2;P2;SDS_P1;SDS_P2;PMS_P1;PMS_P2;Temp;Humidity;BMP_temperature;BMP_pressure;BME280_temperature;BME280_humidity;BME280_pressure;Samples;Min_cycle;Max_cycle;Signal;HPM_P1;HPM_P2
2022/12/25 00:00:49;;;;;;;40.00;14.13;;;5.10;99.90;;;;;;4448293;28;655209;-70
2022/12/25 00:03:36;;;;;;;33.57;13.80;;;5.10;99.90;;;;;;4422261;28;655542;-70
2022/12/25 00:06:24;;;;;;;42.63;13.57;;;5.20;99.90;;;;;;4441937;28;656256;-70
2022/12/25 00:09:12;;;;;;;37.60;14.10;;;5.20;99.90;;;;;;4423163;28;655829;-70
2022/12/25 00:11:59;;;;;;;36.60;13.63;;;5.10;99.90;;;;;;4437251;28;655421;-70
2022/12/25 00:14:47;;;;;;;36.13;12.97;;;5.20;99.90;;;;;;4421082;28;655562;-70
2022/12/25 00:17:35;;;;;;;38.13;13.43;;;5.10;99.90;;;;;;4427872;28;655554;-70
2022/12/25 00:20:22;;;;;;;33.50;13.67;;;5.20;99.90;;;;;;4442029;28;655487;-70
2022/12/25 00:23:10;;;;;;;38.67;14.33;;;5.20;99.90;;;;;;4440846;28;655413;-70
2022/12/25 00:25:57;;;;;;;29.43;13.60;;;5.30;99.90;;;;;;4443307;28;656043;-70
2022/12/25 00:28:45;;;;;;;32.10;12.83;;;5.30;99.90;;;;;;4430119;28;656162;-70
2022/12/25 00:31:34;;;;;;;28.60;12.70;;;5.30;99.90;;;;;;4443691;28;655456;-71
2022/12/25 00:34:21;;;;;;;30.23;13.10;;;5.20;99.90;;;;;;4418641;28;655674;-70
2022/12/25 00:37:08;;;;;;;28.92;11.82;;;5.20;99.90;;;;;;4442578;28;655591;-70
2022/12/25 00:39:56;;;;;;;26.83;11.80;;;5.20;99.90;;;;;;4421059;28;655887;-70
2022/12/25 00:42:43;;;;;;;33.30;12.73;;;5.20;99.90;;;;;;4439456;28;656863;-71
2022/12/25 00:45:30;;;;;;;26.20;11.43;;;5.20;99.90;;;;;;4419209;28;655462;-70
2022/12/25 00:48:19;;;;;;;31.53;13.63;;;5.20;99.90;;;;;;4439398;28;656152;-70
2022/12/25 00:51:07;;;;;;;36.50;14.23;;;5.10;99.90;;;;;;4424239;28;655837;-70
2022/12/25 00:53:54;;;;;;;45.43;17.47;;;5.10;99.90;;;;;;4439067;28;655712;-71
2022/12/25 00:56:41;;;;;;;43.27;17.93;;;5.10;99.90;;;;;;4420749;28;656044;-70
2022/12/25 00:59:31;;;;;;;37.90;17.10;;;5.00;99.90;;;;;;4433628;28;655536;-70
2022/12/25 01:02:24;;;;;;;45.87;18.30;;;5.00;99.90;;;;;;4418146;28;655375;-70
2022/12/25 01:05:13;;;;;;;46.63;19.43;;;4.90;99.90;;;;;;4405424;28;656145;-71
2022/12/25 01:08:00;;;;;;;51.00;20.57;;;4.90;99.90;;;;;;4424490;28;656002;-70
2022/12/25 01:10:53;;;;;;;56.07;21.07;;;4.80;99.90;;;;;;4447347;28;655155;-70
2022/12/25 01:13:40;;;;;;;48.23;18.83;;;4.90;99.90;;;;;;4441703;28;655723;-71
2022/12/25 01:16:27;;;;;;;51.30;20.83;;;4.70;99.90;;;;;;4450469;28;656187;-70
2022/12/25 01:19:16;;;;;;;56.63;21.93;;;4.70;99.90;;;;;;4440330;28;655116;-70
2022/12/25 01:22:05;;;;;;;54.30;22.80;;;4.70;99.90;;;;;;4439246;28;655628;-71
2022/12/25 01:24:52;;;;;;;55.83;22.07;;;4.80;99.90;;;;;;4418692;28;655343;-70
2022/12/25 01:27:41;;;;;;;59.90;24.47;;;4.80;99.90;;;;;;4443161;28;655490;-70
2022/12/25 01:30:28;;;;;;;55.00;22.40;;;4.80;99.90;;;;;;4443735;28;656810;-70
2022/12/25 01:33:15;;;;;;;51.07;23.23;;;4.80;99.90;;;;;;4428236;28;655637;-70
2022/12/25 01:36:03;;;;;;;51.13;23.27;;;4.80;99.90;;;;;;4438304;28;656306;-71
2022/12/25 01:38:52;;;;;;;61.42;24.27;;;4.80;99.90;;;;;;4425958;28;655791;-70
2022/12/25 01:41:39;;;;;;;46.33;21.63;;;4.90;99.90;;;;;;4437741;28;655756;-70
2022/12/25 01:45:03;;;;;;;55.47;22.50;;;4.80;99.90;;;;;;4421021;28;655749;-70
2022/12/25 01:47:51;;;;;;;54.10;21.83;;;4.80;99.90;;;;;;4396282;28;655766;-70
2022/12/25 01:50:38;;;;;;;55.27;22.10;;;4.80;99.90;;;;;;4442567;28;655836;-70
2022/12/25 01:53:25;;;;;;;54.60;21.17;;;4.80;99.90;;;;;;4415745;28;655401;-70
2022/12/25 01:56:14;;;;;;;55.67;24.17;;;4.80;99.90;;;;;;4446650;28;655541;-71
2022/12/25 01:59:01;;;;;;;47.90;22.27;;;4.80;99.90;;;;;;4429657;28;655813;-70
2022/12/25 02:01:48;;;;;;;51.30;20.33;;;4.80;99.90;;;;;;4447741;28;655806;-70
2022/12/25 02:04:38;;;;;;;44.13;20.67;;;4.80;99.90;;;;;;4420775;28;655905;-70
2022/12/25 02:07:26;;;;;;;43.13;19.95;;;4.90;99.90;;;;;;4425466;28;655659;-70
2022/12/25 02:10:14;;;;;;;52.03;21.90;;;4.90;99.90;;;;;;4441232;28;655129;-70
2022/12/25 02:13:02;;;;;;;54.40;21.27;;;4.80;99.90;;;;;;4429990;28;655823;-70
2022/12/25 02:15:55;;;;;;;50.37;19.60;;;4.80;99.90;;;;;;4446928;28;655633;-70
2022/12/25 02:18:43;;;;;;;51.60;19.87;;;4.80;99.90;;;;;;4400086;28;655328;-70
2022/12/25 02:21:41;;;;;;;47.43;20.97;;;4.80;99.90;;;;;;4427405;28;655605;-70
2022/12/25 02:24:49;;;;;;;39.97;18.10;;;4.80;99.90;;;;;;4413634;28;655831;-70
2022/12/25 02:28:01;;;;;;;44.40;19.80;;;4.80;99.90;;;;;;4401991;28;655481;-70
2022/12/25 02:30:51;;;;;;;48.73;21.10;;;4.80;99.90;;;;;;4420331;28;655789;-70
2022/12/25 02:36:49;;;;;;;50.40;21.67;;;4.80;99.90;;;;;;4422582;28;656010;-70
2022/12/25 02:39:58;;;;;;;51.37;18.90;;;4.80;99.90;;;;;;4416668;28;655589;-70
2022/12/25 03:07:38;;;;;;;53.87;24.83;;;4.60;99.90;;;;;;4425484;28;655814;-70
2022/12/25 03:13:32;;;;;;;50.00;22.23;;;4.70;99.90;;;;;;4414485;28;655410;-71
2022/12/25 03:28:43;;;;;;;57.95;21.98;;;4.50;99.90;;;;;;4422861;28;655580;-70
2022/12/25 03:31:34;;;;;;;49.27;23.67;;;4.50;99.90;;;;;;4425120;28;655430;-70
2022/12/25 04:36:52;;;;;;;58.63;25.27;;;4.20;99.90;;;;;;4394178;28;656299;-71
2022/12/25 04:39:39;;;;;;;71.97;25.37;;;4.30;99.90;;;;;;4443823;28;656133;-70
2022/12/25 04:42:26;;;;;;;61.97;26.23;;;4.20;99.90;;;;;;4417964;28;656269;-70
2022/12/25 04:45:14;;;;;;;57.93;24.90;;;4.30;99.90;;;;;;4441127;28;655434;-70
2022/12/25 04:48:01;;;;;;;61.00;25.90;;;4.30;99.90;;;;;;4422174;28;655163;-70
2022/12/25 04:50:48;;;;;;;65.37;27.50;;;4.30;99.90;;;;;;4436146;28;655779;-70
2022/12/25 04:53:37;;;;;;;58.93;27.77;;;4.20;99.90;;;;;;4422045;28;655619;-70
2022/12/25 04:56:24;;;;;;;63.90;27.47;;;4.20;99.90;;;;;;4435205;28;655165;-71
2022/12/25 04:59:11;;;;;;;69.07;29.03;;;4.20;99.90;;;;;;4423793;28;655416;-71
2022/12/25 05:01:58;;;;;;;67.20;28.07;;;4.20;99.90;;;;;;4442081;28;655766;-71
2022/12/25 05:04:46;;;;;;;63.23;27.80;;;4.30;99.90;;;;;;4423370;28;655637;-70
2022/12/25 05:07:34;;;;;;;69.30;30.30;;;4.20;99.90;;;;;;4436720;28;655812;-70
2022/12/25 05:10:22;;;;;;;65.07;28.50;;;4.20;99.90;;;;;;4430543;28;655483;-70
2022/12/25 05:13:09;;;;;;;68.47;27.90;;;4.30;99.90;;;;;;4443640;28;655900;-70
2022/12/25 05:15:57;;;;;;;60.83;27.53;;;4.30;99.90;;;;;;4289363;28;655917;-70
2022/12/25 05:18:44;;;;;;;62.50;28.10;;;4.20;99.90;;;;;;4306746;28;655662;-70
2022/12/25 05:21:31;;;;;;;63.38;27.75;;;4.30;99.90;;;;;;4319740;28;655505;-71
2022/12/25 05:24:18;;;;;;;59.47;27.70;;;4.20;99.90;;;;;;4439677;28;655872;-71
2022/12/25 05:27:07;;;;;;;66.67;27.20;;;4.20;99.90;;;;;;4426754;28;655536;-70
2022/12/25 05:29:54;;;;;;;62.80;25.60;;;4.30;99.90;;;;;;4449277;28;655442;-70
2022/12/25 05:32:42;;;;;;;64.37;27.00;;;4.20;99.90;;;;;;4429261;28;655454;-71
2022/12/25 05:35:29;;;;;;;59.57;25.97;;;4.30;99.90;;;;;;4445594;28;655733;-70
2022/12/25 05:38:16;;;;;;;55.10;25.10;;;4.30;99.90;;;;;;4429509;28;655592;-71
2022/12/25 05:41:03;;;;;;;55.80;26.30;;;4.20;99.90;;;;;;4448837;28;655590;-70
2022/12/25 05:43:52;;;;;;;65.83;27.30;;;4.20;99.90;;;;;;4423908;28;655889;-70
2022/12/25 05:46:39;;;;;;;63.03;26.83;;;4.30;99.90;;;;;;4444188;28;656635;-71
2022/12/25 05:49:26;;;;;;;64.80;28.67;;;4.30;99.90;;;;;;4423785;28;655476;-70
2022/12/25 05:52:14;;;;;;;62.80;26.53;;;4.30;99.90;;;;;;4441910;28;656349;-70
2022/12/25 05:55:01;;;;;;;69.90;28.97;;;4.20;99.90;;;;;;4426316;28;655376;-71
2022/12/25 05:57:48;;;;;;;74.53;30.37;;;4.20;99.90;;;;;;4450744;28;656154;-70
2022/12/25 06:00:37;;;;;;;73.60;30.73;;;4.20;99.90;;;;;;4424569;28;655741;-70
2022/12/25 06:03:24;;;;;;;62.80;30.03;;;4.20;99.90;;;;;;4445327;28;655467;-71
2022/12/25 06:06:11;;;;;;;63.37;30.20;;;4.20;99.90;;;;;;4428246;28;655737;-71
2022/12/25 06:08:59;;;;;;;68.20;28.93;;;4.20;99.90;;;;;;4448979;28;656332;-71
2022/12/25 06:11:46;;;;;;;65.33;29.33;;;4.20;99.90;;;;;;4428453;28;656244;-70
2022/12/25 06:14:33;;;;;;;59.13;27.30;;;4.30;99.90;;;;;;4454082;28;656874;-71
2022/12/25 06:17:22;;;;;;;55.77;27.13;;;4.30;99.90;;;;;;4424303;28;655844;-71
2022/12/25 06:20:09;;;;;;;74.20;28.50;;;4.10;99.90;;;;;;4443142;28;655071;-71
2022/12/25 06:22:57;;;;;;;61.17;27.27;;;4.00;99.90;;;;;;4424474;28;655984;-70
2022/12/25 06:25:44;;;;;;;69.03;28.00;;;4.10;99.90;;;;;;4440956;28;655220;-71
2022/12/25 06:28:31;;;;;;;58.37;25.67;;;4.10;99.90;;;;;;4424033;28;655602;-70
2022/12/25 06:31:19;;;;;;;59.72;26.30;;;4.00;99.90;;;;;;4440143;28;656196;-70
2022/12/25 06:34:09;;;;;;;59.33;26.13;;;4.10;99.90;;;;;;4415699;28;656176;-71
2022/12/25 06:36:56;;;;;;;58.17;26.20;;;4.10;99.90;;;;;;4428134;28;655812;-71
2022/12/25 06:39:43;;;;;;;65.13;25.30;;;4.20;99.90;;;;;;4441963;28;656071;-70
2022/12/25 06:42:30;;;;;;;61.83;26.25;;;4.20;99.90;;;;;;4422752;28;655477;-70
2022/12/25 06:45:17;;;;;;;52.57;25.17;;;4.20;99.90;;;;;;4444810;28;657557;-71
2022/12/25 06:48:05;;;;;;;58.40;26.30;;;4.20;99.90;;;;;;4435109;28;655744;-71
2022/12/25 06:50:54;;;;;;;63.20;26.97;;;4.20;99.90;;;;;;4439938;28;655726;-70
2022/12/25 06:53:41;;;;;;;55.00;25.23;;;4.20;99.90;;;;;;4423355;28;655515;-70
2022/12/25 06:56:29;;;;;;;53.53;25.47;;;4.30;99.90;;;;;;4442680;28;655702;-70
2022/12/25 06:59:16;;;;;;;59.23;25.40;;;4.20;99.90;;;;;;4427223;28;655449;-70
2022/12/25 07:02:03;;;;;;;54.60;25.05;;;4.30;99.90;;;;;;4446355;28;656058;-71
2022/12/25 07:04:50;;;;;;;54.13;24.67;;;4.30;99.90;;;;;;4424195;28;655932;-71
2022/12/25 07:07:39;;;;;;;55.10;24.67;;;4.30;99.90;;;;;;4432511;28;656377;-71
2022/12/25 07:10:26;;;;;;;49.03;22.23;;;4.40;99.90;;;;;;4425300;28;656121;-70
2022/12/25 07:13:14;;;;;;;53.40;22.47;;;4.30;99.90;;;;;;4443050;28;656063;-70
2022/12/25 07:16:02;;;;;;;49.97;21.23;;;4.40;99.90;;;;;;4423072;28;656777;-71
2022/12/25 07:18:49;;;;;;;43.50;19.97;;;4.40;99.90;;;;;;4440245;28;656093;-71
2022/12/25 07:21:36;;;;;;;52.53;20.80;;;4.40;99.90;;;;;;4424011;28;655454;-70
2022/12/25 07:24:25;;;;;;;48.27;20.20;;;4.40;99.90;;;;;;4440640;28;656011;-71
2022/12/25 07:27:12;;;;;;;45.53;20.20;;;4.40;99.90;;;;;;4420942;28;655986;-70
2022/12/25 07:29:59;;;;;;;43.27;19.43;;;4.40;99.90;;;;;;4442928;28;655455;-70
2022/12/25 07:32:46;;;;;;;53.37;20.00;;;4.40;99.90;;;;;;4422792;28;655761;-72
2022/12/25 07:35:34;;;;;;;48.70;20.47;;;4.40;99.90;;;;;;4438901;28;655316;-72
2022/12/25 07:38:21;;;;;;;45.63;20.27;;;4.50;99.90;;;;;;4424443;28;655254;-73
2022/12/25 07:41:10;;;;;;;49.47;22.07;;;4.40;99.90;;;;;;4441878;28;655749;-72
2022/12/25 07:43:57;;;;;;;46.67;21.10;;;4.50;99.90;;;;;;4422501;28;656420;-72
2022/12/25 07:46:44;;;;;;;45.57;19.80;;;4.50;99.90;;;;;;4436346;28;655069;-73
2022/12/25 07:49:32;;;;;;;45.50;20.37;;;4.60;99.90;;;;;;4419553;28;655980;-72
2022/12/25 07:52:19;;;;;;;45.17;21.00;;;4.60;99.90;;;;;;4443813;28;655304;-73
2022/12/25 07:55:06;;;;;;;43.67;20.83;;;4.60;99.90;;;;;;4422151;28;655573;-72
2022/12/25 07:57:55;;;;;;;47.13;20.57;;;4.60;99.90;;;;;;4437418;28;655281;-72
2022/12/25 08:00:42;;;;;;;45.73;21.60;;;4.70;99.90;;;;;;4418559;28;655709;-73
2022/12/25 08:03:30;;;;;;;49.70;20.80;;;4.70;99.90;;;;;;4443334;28;655383;-72
2022/12/25 08:06:17;;;;;;;47.53;20.90;;;4.70;99.90;;;;;;4416479;28;656212;-73
2022/12/25 08:09:06;;;;;;;45.63;21.07;;;4.60;99.90;;;;;;4435591;28;655784;-73
2022/12/25 08:11:53;;;;;;;38.90;19.23;;;4.60;99.90;;;;;;4410768;28;656151;-72
2022/12/25 08:14:42;;;;;;;43.55;20.10;;;4.60;99.90;;;;;;4418836;28;655520;-71
2022/12/25 08:17:29;;;;;;;46.97;20.23;;;4.60;99.90;;;;;;4427018;28;655605;-73
2022/12/25 08:20:16;;;;;;;40.43;19.20;;;4.70;99.90;;;;;;4413972;28;655611;-72
2022/12/25 08:23:04;;;;;;;42.67;17.40;;;4.90;99.90;;;;;;4444491;28;655804;-73
2022/12/25 08:25:51;;;;;;;40.60;18.70;;;5.10;99.90;;;;;;4428495;28;655784;-73
2022/12/25 08:28:38;;;;;;;38.23;17.60;;;5.40;99.90;;;;;;4447179;28;656050;-73
2022/12/25 08:31:28;;;;;;;31.40;15.83;;;5.30;99.90;;;;;;4427655;28;655984;-72
2022/12/25 08:34:15;;;;;;;39.38;16.08;;;5.30;99.90;;;;;;4421058;28;655795;-71
2022/12/25 08:37:03;;;;;;;37.37;17.20;;;5.30;99.90;;;;;;4441577;28;656327;-73
2022/12/25 08:39:50;;;;;;;31.67;15.97;;;5.40;99.90;;;;;;4437788;28;656649;-71
2022/12/25 08:42:38;;;;;;;34.43;14.80;;;5.40;99.90;;;;;;4444027;28;655948;-73
2022/12/25 08:45:25;;;;;;;36.87;17.03;;;5.50;99.90;;;;;;4434914;28;655188;-71
2022/12/25 08:48:14;;;;;;;34.40;16.27;;;5.40;99.90;;;;;;4444520;28;656835;-73
2022/12/25 08:51:01;;;;;;;32.72;16.65;;;5.40;99.90;;;;;;4416830;28;655835;-73
2022/12/25 08:53:49;;;;;;;31.50;14.67;;;5.50;99.90;;;;;;4448845;28;655483;-72
2022/12/25 08:56:37;;;;;;;36.47;16.60;;;5.70;99.90;;;;;;4424767;28;655309;-73
2022/12/25 08:59:24;;;;;;;38.77;15.23;;;5.80;99.90;;;;;;4445774;28;655510;-73
2022/12/25 09:02:11;;;;;;;32.90;15.17;;;6.40;99.90;;;;;;4420954;28;656618;-72
2022/12/25 09:05:00;;;;;;;32.60;14.00;;;6.90;99.90;;;;;;4442384;28;655881;-73
2022/12/25 09:07:47;;;;;;;25.07;12.60;;;6.90;99.90;;;;;;4419740;28;655918;-73
2022/12/25 09:10:35;;;;;;;20.10;11.73;;;7.60;99.90;;;;;;4438113;28;656565;-73
2022/12/25 09:13:22;;;;;;;32.03;15.53;;;8.30;99.90;;;;;;4423008;28;656134;-73
2022/12/25 09:16:11;;;;;;;33.57;16.60;;;9.20;99.90;;;;;;4439581;28;655377;-71
2022/12/25 09:18:58;;;;;;;30.80;14.70;;;9.90;99.90;;;;;;4440320;28;655902;-73
2022/12/25 09:21:47;;;;;;;26.60;12.73;;;10.50;99.90;;;;;;4422440;28;655793;-73
2022/12/25 09:24:34;;;;;;;24.73;12.97;;;10.60;99.90;;;;;;4440006;28;656899;-75
2022/12/25 09:27:21;;;;;;;28.40;11.43;;;11.00;99.90;;;;;;4419111;28;656499;-73
2022/12/25 09:30:09;;;;;;;21.43;10.70;;;10.50;99.90;;;;;;4439930;28;657081;-74
2022/12/25 09:32:56;;;;;;;19.87;9.30;;;11.00;99.90;;;;;;4411374;28;656423;-74
2022/12/25 09:35:44;;;;;;;19.10;9.50;;;11.50;99.90;;;;;;4443137;28;655024;-72
2022/12/25 09:38:33;;;;;;;18.23;8.60;;;11.10;99.90;;;;;;4421323;28;655342;-72
2022/12/25 09:41:23;;;;;;;18.33;9.60;;;11.50;99.90;;;;;;4437104;28;655371;-70
2022/12/25 09:44:11;;;;;;;20.07;8.80;;;11.30;99.90;;;;;;4436335;28;655417;-70
2022/12/25 09:46:59;;;;;;;19.93;8.10;;;10.40;99.90;;;;;;4445293;28;655820;-73
2022/12/25 09:49:49;;;;;;;20.13;9.00;;;11.10;99.90;;;;;;4418946;28;655861;-72
2022/12/25 09:52:40;;;;;;;16.97;9.13;;;11.10;99.90;;;;;;4416497;28;655813;-71
2022/12/25 09:55:30;;;;;;;18.10;9.20;;;10.50;99.90;;;;;;4421258;28;655810;-69
2022/12/25 09:58:17;;;;;;;19.10;9.23;;;11.80;99.90;;;;;;4423727;28;656082;-72
2022/12/25 10:01:09;;;;;;;16.87;8.77;;;12.60;99.90;;;;;;4438807;28;655777;-69
2022/12/25 10:04:23;;;;;;;20.57;9.30;;;13.00;99.90;;;;;;4426208;28;656024;-72
2022/12/25 10:07:13;;;;;;;18.43;8.53;;;12.90;99.90;;;;;;4407516;28;658652;-68
2022/12/25 10:10:09;;;;;;;19.67;9.27;;;12.80;99.40;;;;;;4423981;28;655989;-69
2022/12/25 10:13:01;;;;;;;22.83;9.87;;;13.00;99.90;;;;;;4395422;28;655528;-72
2022/12/25 10:15:52;;;;;;;16.83;9.47;;;12.80;99.90;;;;;;4414425;28;655908;-72
2022/12/25 10:18:55;;;;;;;19.00;9.03;;;13.70;99.90;;;;;;4415417;28;655473;-71
2022/12/25 10:21:43;;;;;;;18.47;8.93;;;14.10;95.90;;;;;;4421528;28;655249;-72
2022/12/25 10:24:33;;;;;;;17.80;9.50;;;14.30;94.90;;;;;;4426007;28;655603;-68
2022/12/25 10:27:32;;;;;;;17.40;9.50;;;14.10;93.80;;;;;;4433237;28;655594;-69
2022/12/25 10:30:22;;;;;;;20.97;9.90;;;14.20;93.60;;;;;;4422839;28;655176;-72
2022/12/25 10:33:09;;;;;;;16.57;8.10;;;14.00;95.00;;;;;;4421651;28;655779;-71
2022/12/25 10:35:56;;;;;;;15.20;7.90;;;14.40;90.70;;;;;;4416652;28;655510;-71
2022/12/25 10:38:44;;;;;;;14.90;8.23;;;14.00;93.00;;;;;;4443080;28;655632;-72
2022/12/25 10:42:03;;;;;;;16.37;8.57;;;13.80;91.10;;;;;;4424237;28;655491;-71
2022/12/25 10:44:57;;;;;;;17.53;9.17;;;12.80;93.50;;;;;;4414242;28;656275;-72
2022/12/25 10:47:46;;;;;;;20.37;8.73;;;13.30;94.30;;;;;;4422032;28;655195;-71
2022/12/25 10:50:33;;;;;;;20.03;9.47;;;13.60;93.60;;;;;;4423219;28;656776;-70
2022/12/25 10:53:22;;;;;;;19.67;9.47;;;13.70;93.70;;;;;;4424047;28;655443;-70
2022/12/25 10:56:15;;;;;;;18.23;10.13;;;15.10;90.70;;;;;;4445726;28;655356;-72
2022/12/25 10:59:05;;;;;;;23.03;10.23;;;14.50;87.60;;;;;;4426824;28;656557;-71
2022/12/25 11:01:52;;;;;;;21.20;10.40;;;14.90;86.60;;;;;;4412541;28;657653;-71
2022/12/25 11:04:42;;;;;;;19.03;10.23;;;15.40;87.10;;;;;;4440516;28;657226;-69
2022/12/25 11:07:29;;;;;;;20.60;9.10;;;13.40;88.60;;;;;;4446761;28;656570;-68
2022/12/25 11:10:19;;;;;;;22.92;10.82;;;13.90;88.70;;;;;;4416562;28;655506;-70
2022/12/25 11:13:06;;;;;;;19.87;10.53;;;14.00;91.00;;;;;;4295311;28;656314;-68
2022/12/25 11:16:05;;;;;;;18.30;9.80;;;14.50;90.20;;;;;;4302634;28;656086;-68
2022/12/25 11:18:53;;;;;;;21.17;9.40;;;14.30;87.90;;;;;;4322067;28;655376;-70
2022/12/25 11:21:49;;;;;;;22.13;10.67;;;13.70;88.20;;;;;;4416108;28;655739;-69
2022/12/25 11:24:36;;;;;;;18.83;10.47;;;13.10;91.30;;;;;;4421607;28;657698;-71
2022/12/25 11:27:27;;;;;;;20.70;9.57;;;13.30;91.20;;;;;;4437997;28;656922;-70
2022/12/25 11:30:15;;;;;;;19.20;8.93;;;13.60;89.90;;;;;;4420924;28;655405;-70
2022/12/25 11:33:04;;;;;;;18.40;9.17;;;13.60;90.10;;;;;;4418593;28;656777;-70
2022/12/25 11:35:52;;;;;;;17.23;9.03;;;13.60;92.10;;;;;;4422261;28;655913;-69
2022/12/25 11:38:40;;;;;;;19.13;9.43;;;14.40;88.50;;;;;;4439308;28;655510;-70
2022/12/25 11:41:30;;;;;;;20.63;8.93;;;14.60;85.70;;;;;;4421310;28;656663;-70
2022/12/25 11:44:26;;;;;;;16.07;7.33;;;14.40;87.90;;;;;;4419488;28;656162;-71
2022/12/25 11:47:17;;;;;;;14.57;7.50;;;14.60;82.50;;;;;;4420653;28;655629;-71
2022/12/25 11:50:06;;;;;;;21.77;7.87;;;14.00;87.50;;;;;;4416914;28;655379;-70
2022/12/25 11:52:54;;;;;;;13.97;6.70;;;14.50;87.40;;;;;;4422069;28;655485;-71
2022/12/25 11:55:43;;;;;;;18.07;7.53;;;15.70;79.50;;;;;;4412206;28;655760;-71
2022/12/25 11:58:32;;;;;;;17.17;6.57;;;16.10;75.50;;;;;;4420808;28;655631;-67
2022/12/25 12:01:26;;;;;;;15.40;7.20;;;14.10;81.50;;;;;;4438008;28;656796;-71
2022/12/25 12:04:16;;;;;;;19.13;7.30;;;14.90;79.50;;;;;;4417075;28;656738;-72
2022/12/25 12:07:04;;;;;;;16.83;6.83;;;14.90;78.00;;;;;;4421031;28;656727;-70
2022/12/25 12:09:58;;;;;;;12.97;6.37;;;15.40;77.40;;;;;;4420544;28;657294;-71
2022/12/25 12:12:51;;;;;;;14.43;6.70;;;15.40;77.00;;;;;;4396471;28;655648;-68
2022/12/25 12:15:41;;;;;;;15.73;6.30;;;15.80;75.20;;;;;;4424368;28;656428;-70
2022/12/25 12:18:32;;;;;;;18.67;7.50;;;15.80;74.10;;;;;;4423141;28;655878;-72
2022/12/25 12:21:22;;;;;;;16.47;7.13;;;16.00;72.00;;;;;;4409362;28;655432;-67
2022/12/25 12:24:11;;;;;;;14.83;7.47;;;15.90;70.70;;;;;;4446164;28;654982;-71
2022/12/25 12:27:02;;;;;;;20.00;7.67;;;14.70;74.10;;;;;;4425075;28;655916;-70
2022/12/25 12:29:51;;;;;;;16.87;7.60;;;13.90;78.30;;;;;;4418545;28;655800;-71
2022/12/25 12:32:40;;;;;;;14.90;6.97;;;15.00;79.10;;;;;;4446802;28;657322;-70
2022/12/25 12:35:28;;;;;;;15.90;7.93;;;15.80;74.20;;;;;;4421513;28;656460;-71
2022/12/25 12:38:17;;;;;;;34.47;13.60;;;16.60;70.70;;;;;;4426820;28;655507;-70
2022/12/25 12:41:07;;;;;;;38.53;16.83;;;16.60;68.00;;;;;;4445039;28;656858;-67
2022/12/25 12:43:55;;;;;;;29.17;12.87;;;15.90;70.00;;;;;;4445787;28;656957;-71
2022/12/25 12:46:50;;;;;;;32.73;14.37;;;16.70;69.50;;;;;;4428133;28;657289;-70
2022/12/25 12:49:38;;;;;;;28.83;14.73;;;16.30;67.70;;;;;;4418887;28;656934;-70
2022/12/25 12:52:30;;;;;;;40.53;20.17;;;16.70;69.10;;;;;;4435810;28;657133;-68
2022/12/25 12:55:28;;;;;;;39.93;21.13;;;16.50;65.00;;;;;;4426608;28;658363;-70
2022/12/25 12:58:26;;;;;;;26.10;13.10;;;16.30;65.90;;;;;;4408198;28;656786;-67
2022/12/25 13:01:18;;;;;;;28.80;12.80;;;16.70;69.10;;;;;;4427369;28;656629;-70
2022/12/25 13:04:50;;;;;;;23.90;12.10;;;17.00;65.70;;;;;;4410743;28;656328;-70
2022/12/25 13:07:45;;;;;;;26.67;14.03;;;17.10;65.80;;;;;;4391559;28;656831;-70
2022/12/25 13:10:33;;;;;;;30.87;14.53;;;16.40;68.40;;;;;;4429582;28;656271;-69
2022/12/25 13:13:21;;;;;;;27.23;12.57;;;17.10;63.50;;;;;;4424292;28;656990;-69
2022/12/25 13:16:14;;;;;;;29.67;13.33;;;17.00;66.30;;;;;;4451556;28;656528;-70
2022/12/25 13:19:05;;;;;;;32.33;14.73;;;17.30;64.40;;;;;;4431897;28;656237;-70
2022/12/25 13:21:53;;;;;;;26.13;12.13;;;17.70;64.20;;;;;;4429596;28;657972;-69
2022/12/25 13:24:42;;;;;;;28.40;13.03;;;17.70;64.20;;;;;;4425183;28;656799;-69
2022/12/25 13:27:31;;;;;;;26.00;12.07;;;17.20;65.00;;;;;;4455392;28;660466;-69
2022/12/25 13:30:20;;;;;;;27.33;13.63;;;16.70;63.20;;;;;;4421166;28;657315;-70
2022/12/25 13:33:13;;;;;;;23.87;11.87;;;16.00;66.20;;;;;;4425951;28;658081;-70
2022/12/25 13:36:00;;;;;;;27.60;12.23;;;16.90;66.90;;;;;;4407233;28;657071;-67
2022/12/25 13:38:50;;;;;;;23.73;12.00;;;17.20;65.70;;;;;;4449247;28;658124;-69
2022/12/25 13:44:49;;;;;;;27.63;12.07;;;17.10;66.20;;;;;;4407813;28;656647;-69
2022/12/25 13:47:37;;;;;;;24.97;11.80;;;17.20;66.90;;;;;;4425254;28;656970;-69
2022/12/25 13:50:26;;;;;;;23.70;11.53;;;17.00;66.40;;;;;;4458574;28;656902;-69
2022/12/25 13:53:14;;;;;;;27.47;12.33;;;16.90;65.30;;;;;;4430591;28;656586;-69
2022/12/25 13:56:01;;;;;;;25.70;11.17;;;16.10;67.50;;;;;;4428002;28;656321;-68
2022/12/25 13:58:49;;;;;;;25.67;11.17;;;16.20;68.00;;;;;;4456647;28;656886;-69
2022/12/25 14:01:41;;;;;;;28.03;12.13;;;16.00;68.70;;;;;;4433160;28;656702;-69
2022/12/25 14:04:29;;;;;;;28.60;11.53;;;15.90;68.10;;;;;;4412412;28;656462;-69
2022/12/25 14:07:18;;;;;;;30.83;12.53;;;15.70;69.00;;;;;;4431417;28;656472;-68
2022/12/25 14:10:06;;;;;;;24.13;11.93;;;15.60;69.60;;;;;;4437190;28;656793;-66
2022/12/25 14:12:54;;;;;;;26.97;13.07;;;15.20;69.50;;;;;;4456591;28;656689;-68
2022/12/25 14:15:43;;;;;;;27.63;12.90;;;14.70;70.50;;;;;;4432633;28;656538;-68
2022/12/25 14:18:31;;;;;;;29.03;13.37;;;14.10;72.70;;;;;;4435706;28;656975;-66
2022/12/25 14:21:23;;;;;;;35.23;15.07;;;13.50;74.80;;;;;;4445660;28;657812;-68
2022/12/25 14:24:12;;;;;;;37.47;15.47;;;12.50;77.90;;;;;;4408112;28;657043;-67
2022/12/25 14:27:00;;;;;;;37.33;15.63;;;11.50;83.30;;;;;;4450691;28;656543;-68
2022/12/25 14:29:48;;;;;;;34.90;14.35;;;10.70;91.40;;;;;;4432146;28;657676;-67
2022/12/25 14:32:40;;;;;;;33.70;15.03;;;10.10;97.70;;;;;;4431169;28;656616;-66
2022/12/25 14:35:27;;;;;;;35.50;15.27;;;9.40;99.90;;;;;;4431557;28;656916;-68
2022/12/25 14:38:26;;;;;;;41.77;16.17;;;8.90;99.90;;;;;;4447438;28;656051;-67
2022/12/25 14:41:32;;;;;;;41.23;18.23;;;8.20;99.90;;;;;;4428664;28;655567;-68
2022/12/25 14:44:31;;;;;;;45.33;19.00;;;7.70;1.00;;;;;;4429159;28;655724;-69
2022/12/25 14:47:19;;;;;;;48.90;21.47;;;7.20;99.90;;;;;;4431463;28;655084;-69
2022/12/25 14:50:16;;;;;;;50.53;23.47;;;6.70;1.00;;;;;;4433296;28;655896;-69
2022/12/25 14:53:03;;;;;;;58.60;24.97;;;6.40;1.00;;;;;;4432794;28;655349;-69
2022/12/25 14:55:51;;;;;;;52.90;24.07;;;6.00;99.90;;;;;;4424596;28;654942;-67
2022/12/25 14:58:41;;;;;;;55.03;24.67;;;5.80;1.00;;;;;;4445385;28;655692;-69
2022/12/25 15:01:30;;;;;;;61.50;24.00;;;5.50;99.90;;;;;;4424981;28;656117;-69
2022/12/25 15:04:17;;;;;;;45.37;17.73;;;5.00;1.00;;;;;;4427582;28;655926;-69
2022/12/25 15:07:23;;;;;;;41.23;18.50;;;4.70;7.00;;;;;;4451037;28;654648;-68
2022/12/25 15:10:13;;;;;;;43.67;19.20;;;4.60;99.90;;;;;;4413423;28;654711;-69
2022/12/25 15:13:00;;;;;;;52.97;21.60;;;4.50;99.90;;;;;;4425311;28;655770;-67
2022/12/25 15:15:56;;;;;;;55.43;21.37;;;4.50;99.90;;;;;;4453860;28;654997;-69
2022/12/25 15:18:44;;;;;;;60.58;27.42;;;4.40;99.90;;;;;;4426044;28;655650;-69
2022/12/25 15:21:33;;;;;;;50.17;20.53;;;4.30;99.90;;;;;;4431816;28;655005;-69
2022/12/25 15:24:22;;;;;;;63.77;27.83;;;4.00;99.90;;;;;;4438687;28;656210;-67
2022/12/25 15:27:12;;;;;;;62.40;28.17;;;3.90;99.90;;;;;;4451412;28;655293;-69
2022/12/25 15:29:59;;;;;;;104.13;48.20;;;3.70;99.90;;;;;;4423469;28;655780;-69
2022/12/25 15:32:46;;;;;;;66.80;31.40;;;3.70;99.90;;;;;;4423957;28;657037;-69
2022/12/25 15:35:37;;;;;;;79.17;34.17;;;3.60;99.90;;;;;;4446794;28;656001;-69
2022/12/25 15:38:24;;;;;;;129.90;57.30;;;3.50;99.90;;;;;;4422402;28;655166;-70
2022/12/25 15:42:09;;;;;;;127.20;55.72;;;3.40;99.90;;;;;;4426488;28;656405;-68
2022/12/25 15:44:22;;;;;;;121.35;51.90;;;3.30;99.90;;;;;;4430536;28;656581;-69
2022/12/25 15:47:10;;;;;;;120.60;55.03;;;3.30;99.90;;;;;;4438900;28;657122;-69
2022/12/25 15:49:57;;;;;;;97.97;43.73;;;3.20;99.90;;;;;;4425329;28;656992;-70
2022/12/25 15:52:44;;;;;;;67.17;28.63;;;3.20;99.90;;;;;;4453555;28;655049;-69
2022/12/25 15:55:31;;;;;;;45.20;18.80;;;3.20;99.90;;;;;;4421234;28;655964;-69
2022/12/25 15:58:20;;;;;;;39.83;18.33;;;3.10;99.90;;;;;;4448678;28;656007;-69
2022/12/25 16:01:09;;;;;;;44.67;18.40;;;3.00;99.90;;;;;;4424341;28;655878;-69
2022/12/25 16:03:56;;;;;;;49.67;21.33;;;3.00;99.90;;;;;;4422743;28;655457;-70
2022/12/25 16:06:43;;;;;;;60.27;26.63;;;2.90;99.90;;;;;;4431305;28;657263;-69